createdAt,value
2023-04-18T00:00:28.164Z,9.10
2023-04-18T00:02:55.834Z,9.10
2023-04-18T00:05:23.442Z,9.10
2023-04-18T00:07:51.555Z,9.10
2023-04-18T00:10:18.441Z,9.00
2023-04-18T00:12:45.297Z,9.10
2023-04-18T00:15:12.952Z,9.00
2023-04-18T00:17:40.076Z,9.00
2023-04-18T00:20:09.352Z,8.90
2023-04-18T00:22:36.639Z,8.90
2023-04-18T00:25:03.784Z,8.90
2023-04-18T00:27:30.826Z,9.00
2023-04-18T00:29:57.709Z,8.90
2023-04-18T00:32:24.680Z,8.80
2023-04-18T00:34:51.607Z,8.90
2023-04-18T00:37:19.494Z,8.90
2023-04-18T00:39:46.346Z,9.00
2023-04-18T00:42:13.246Z,9.00
2023-04-18T00:44:40.164Z,8.90
2023-04-18T00:47:07.089Z,9.00
2023-04-18T00:49:34.132Z,9.00
2023-04-18T00:52:01.027Z,9.00
2023-04-18T00:54:27.904Z,9.10
2023-04-18T00:56:54.841Z,9.10
2023-04-18T00:59:22.403Z,9.10
2023-04-18T01:01:49.359Z,9.10
2023-04-18T01:04:16.787Z,9.10
2023-04-18T01:06:45.706Z,9.10
2023-04-18T01:09:12.809Z,9.10
2023-04-18T01:11:39.743Z,9.10
2023-04-18T01:14:07.095Z,9.10
2023-04-18T01:16:37.309Z,9.10
2023-04-18T01:19:04.564Z,9.10
2023-04-18T01:21:34.025Z,9.10
2023-04-18T01:24:05.753Z,9.10
2023-04-18T01:26:32.676Z,9.10
2023-04-18T01:28:59.554Z,9.00
2023-04-18T01:31:26.415Z,9.00
2023-04-18T01:33:53.368Z,9.10
2023-04-18T01:36:20.234Z,9.10
2023-04-18T01:38:47.202Z,9.10
2023-04-18T01:41:14.040Z,9.10
2023-04-18T01:43:42.551Z,9.10
2023-04-18T01:46:09.861Z,9.00
2023-04-18T01:48:36.851Z,9.00
2023-04-18T01:51:03.845Z,9.00
2023-04-18T01:53:31.899Z,8.90
2023-04-18T01:55:58.843Z,9.00
2023-04-18T01:58:26.855Z,9.00
2023-04-18T02:00:54.208Z,9.10
2023-04-18T02:03:21.982Z,9.10
2023-04-18T02:05:49.012Z,9.10
2023-04-18T02:08:16.037Z,9.10
2023-04-18T02:10:45.002Z,9.10
2023-04-18T02:13:11.956Z,9.10
2023-04-18T02:15:38.848Z,9.00
2023-04-18T02:18:07.124Z,9.00
2023-04-18T02:20:34.171Z,9.10
2023-04-18T02:23:02.049Z,9.10
2023-04-18T02:25:30.333Z,9.10
2023-04-18T02:27:57.579Z,9.10
2023-04-18T02:30:24.799Z,9.10
2023-04-18T02:32:52.390Z,9.10
2023-04-18T02:35:19.787Z,9.10
2023-04-18T02:37:48.845Z,9.10
2023-04-18T02:40:17.426Z,9.10
2023-04-18T02:42:44.324Z,9.10
2023-04-18T02:45:14.584Z,9.10
2023-04-18T02:47:51.796Z,9.10
2023-04-18T02:50:22.787Z,9.20
2023-04-18T02:52:50.595Z,9.20
2023-04-18T02:55:19.566Z,9.20
2023-04-18T02:57:46.662Z,9.20
2023-04-18T03:00:34.420Z,9.30
2023-04-18T03:03:23.913Z,9.30
2023-04-18T03:06:13.575Z,9.30
2023-04-18T03:08:41.336Z,9.30
2023-04-18T03:11:09.154Z,9.30
2023-04-18T03:13:36.709Z,9.30
2023-04-18T03:16:04.003Z,9.10
2023-04-18T03:18:33.274Z,9.10
2023-04-18T03:21:00.876Z,9.10
2023-04-18T03:23:30.020Z,9.10
2023-04-18T03:25:57.872Z,9.10
2023-04-18T03:28:26.604Z,9.10
2023-04-18T03:30:53.805Z,9.10
2023-04-18T03:33:20.751Z,9.10
2023-04-18T03:35:51.060Z,9.10
2023-04-18T03:38:18.010Z,9.10
2023-04-18T03:40:44.941Z,9.10
2023-04-18T03:43:20.222Z,9.10
2023-04-18T03:45:47.623Z,9.20
2023-04-18T03:48:16.743Z,9.10
2023-04-18T03:50:45.548Z,9.10
2023-04-18T03:53:12.468Z,9.10
2023-04-18T03:55:39.499Z,9.00
2023-04-18T03:58:07.188Z,8.90
2023-04-18T04:00:34.781Z,8.90
2023-04-18T04:03:07.679Z,8.90
2023-04-18T04:05:34.725Z,8.90
2023-04-18T04:08:01.672Z,8.90
2023-04-18T04:10:28.608Z,8.90
2023-04-18T04:12:55.635Z,9.00
2023-04-18T04:15:23.188Z,8.90
2023-04-18T04:17:56.250Z,8.80
2023-04-18T04:20:24.985Z,8.70
2023-04-18T04:23:00.239Z,8.60
2023-04-18T04:25:31.225Z,8.60
2023-04-18T04:28:02.966Z,8.50
2023-04-18T04:30:33.846Z,8.40
2023-04-18T04:33:02.057Z,8.40
2023-04-18T04:35:29.070Z,8.30
2023-04-18T04:37:56.130Z,8.30
2023-04-18T04:40:29.625Z,8.20
2023-04-18T04:43:05.723Z,8.20
2023-04-18T04:45:39.750Z,8.10
2023-04-18T04:48:06.750Z,8.00
2023-04-18T04:50:36.273Z,8.00
2023-04-18T04:53:04.240Z,8.00
2023-04-18T04:55:32.696Z,8.10
2023-04-18T04:58:00.736Z,8.10
2023-04-18T05:00:48.106Z,8.10
2023-04-18T05:03:15.116Z,8.10
2023-04-18T05:05:42.204Z,8.10
2023-04-18T05:08:09.118Z,8.00
2023-04-18T05:10:38.761Z,8.10
2023-04-18T05:13:05.703Z,8.10
2023-04-18T05:15:32.831Z,8.00
2023-04-18T05:17:59.881Z,8.00
2023-04-18T05:20:26.800Z,8.00
2023-04-18T05:22:53.667Z,8.00
2023-04-18T05:25:20.603Z,7.90
2023-04-18T05:27:47.563Z,8.00
2023-04-18T05:30:14.764Z,8.00
2023-04-18T05:32:41.929Z,8.00
2023-04-18T05:35:09.035Z,8.00
2023-04-18T05:37:35.961Z,8.00
2023-04-18T05:40:03.552Z,8.00
2023-04-18T05:42:30.445Z,8.00
2023-04-18T05:44:57.379Z,8.00
2023-04-18T05:47:27.110Z,8.00
2023-04-18T05:49:54.755Z,8.00
2023-04-18T05:52:21.606Z,8.00
2023-04-18T05:54:48.527Z,8.00
2023-04-18T05:57:15.453Z,8.00
2023-04-18T05:59:42.582Z,8.00
2023-04-18T06:02:13.648Z,8.10
2023-04-18T06:04:42.002Z,8.20
2023-04-18T06:07:09.430Z,8.10
2023-04-18T06:09:36.453Z,8.20
2023-04-18T06:12:03.517Z,8.20
2023-04-18T06:14:30.590Z,8.20
2023-04-18T06:16:57.434Z,8.20
2023-04-18T06:19:24.399Z,8.30
2023-04-18T06:21:52.134Z,8.30
2023-04-18T06:24:19.091Z,8.30
2023-04-18T06:26:45.972Z,8.20
2023-04-18T06:29:13.024Z,8.20
2023-04-18T06:31:39.940Z,8.20
2023-04-18T06:34:06.916Z,8.30
2023-04-18T06:36:33.770Z,8.30
2023-04-18T06:39:00.894Z,8.30
2023-04-18T06:41:27.874Z,8.40
2023-04-18T06:44:03.327Z,8.40
2023-04-18T06:46:31.617Z,8.30
2023-04-18T06:48:58.799Z,8.30
2023-04-18T06:51:25.882Z,8.40
2023-04-18T06:53:53.820Z,8.30
2023-04-18T06:56:20.836Z,8.40
2023-04-18T06:58:47.931Z,8.50
2023-04-18T07:01:14.985Z,8.60
2023-04-18T07:03:42.088Z,8.70
2023-04-18T07:06:10.669Z,8.80
2023-04-18T07:08:37.597Z,9.10
2023-04-18T07:11:04.571Z,9.30
2023-04-18T07:13:31.549Z,9.50
2023-04-18T07:15:58.532Z,9.90
2023-04-18T07:18:36.672Z,10.30
2023-04-18T07:21:07.689Z,10.40
2023-04-18T07:23:54.211Z,10.10
2023-04-18T07:26:21.112Z,10.30
2023-04-18T07:28:48.029Z,10.90
2023-04-18T07:31:16.786Z,10.90
2023-04-18T07:33:44.037Z,11.10
2023-04-18T07:36:11.195Z,11.40
2023-04-18T07:38:38.204Z,11.50
2023-04-18T07:41:05.230Z,11.70
2023-04-18T07:43:32.230Z,11.60
2023-04-18T07:45:59.161Z,12.40
2023-04-18T07:48:26.116Z,12.70
2023-04-18T07:50:53.318Z,13.30
2023-04-18T07:53:20.420Z,12.90
2023-04-18T07:55:47.250Z,12.40
2023-04-18T07:58:14.225Z,12.50
2023-04-18T08:00:42.735Z,12.50
2023-04-18T08:03:13.194Z,13.00
2023-04-18T08:05:40.788Z,13.40
2023-04-18T08:08:07.981Z,13.10
2023-04-18T08:10:35.103Z,13.20
2023-04-18T08:13:02.412Z,13.30
2023-04-18T08:15:29.418Z,13.60
2023-04-18T08:17:56.426Z,14.20
2023-04-18T08:20:23.447Z,14.50
2023-04-18T08:25:24.368Z,14.70
2023-04-18T08:27:51.274Z,15.10
2023-04-18T08:30:18.226Z,15.20
2023-04-18T08:32:45.173Z,15.40
2023-04-18T08:35:12.108Z,15.40
2023-04-18T08:37:39.187Z,15.40
2023-04-18T08:40:07.500Z,15.10
2023-04-18T08:42:34.462Z,15.20
2023-04-18T08:45:01.625Z,15.20
2023-04-18T08:47:31.574Z,14.80
2023-04-18T08:49:58.732Z,14.70
2023-04-18T08:52:26.170Z,14.80
2023-04-18T08:54:53.431Z,15.00
2023-04-18T08:57:38.322Z,15.10
2023-04-18T09:00:08.520Z,15.40
2023-04-18T09:02:47.231Z,15.60
2023-04-18T09:05:15.108Z,15.90
2023-04-18T09:07:42.258Z,16.60
2023-04-18T09:10:10.066Z,16.40
2023-04-18T09:12:46.479Z,15.30
2023-04-18T09:15:14.399Z,14.10
2023-04-18T09:17:42.686Z,13.90
2023-04-18T09:20:13.230Z,13.60
2023-04-18T09:22:46.282Z,13.20
2023-04-18T09:25:23.841Z,12.80
2023-04-18T09:27:50.840Z,12.60
2023-04-18T09:30:30.686Z,12.20
2023-04-18T09:32:59.355Z,12.20
2023-04-18T09:35:26.921Z,11.90
2023-04-18T09:37:53.863Z,11.80
2023-04-18T09:40:20.924Z,12.00
2023-04-18T09:42:50.971Z,11.90
2023-04-18T09:45:18.158Z,11.60
2023-04-18T09:47:45.200Z,11.50
2023-04-18T09:50:12.169Z,11.30
2023-04-18T09:52:40.067Z,11.40
2023-04-18T09:55:14.549Z,11.40
2023-04-18T09:57:42.679Z,11.40
2023-04-18T10:00:27.950Z,11.50
2023-04-18T10:02:59.429Z,11.50
2023-04-18T10:05:27.341Z,11.60
2023-04-18T10:07:54.620Z,11.80
2023-04-18T10:10:21.602Z,12.00
2023-04-18T10:12:48.868Z,11.90
2023-04-18T10:15:16.187Z,11.70
2023-04-18T10:17:56.003Z,11.60
2023-04-18T10:20:24.057Z,11.60
2023-04-18T10:22:51.262Z,11.80
2023-04-18T10:25:41.735Z,11.50
2023-04-18T10:28:09.002Z,11.60
2023-04-18T10:30:41.736Z,11.70
2023-04-18T10:33:31.859Z,11.70
2023-04-18T10:36:20.795Z,11.50
2023-04-18T10:38:49.522Z,11.60
2023-04-18T10:41:19.298Z,11.70
2023-04-18T10:44:06.256Z,11.70
2023-04-18T10:46:33.700Z,11.80
2023-04-18T10:49:16.752Z,11.70
2023-04-18T10:51:46.764Z,11.80
2023-04-18T10:54:17.482Z,11.70
2023-04-18T10:56:54.265Z,11.60
2023-04-18T10:59:22.501Z,11.40
2023-04-18T11:01:49.564Z,11.10
2023-04-18T11:04:16.951Z,11.20
2023-04-18T11:06:50.670Z,11.20
2023-04-18T11:09:17.642Z,11.20
2023-04-18T11:11:44.583Z,11.30
2023-04-18T11:14:11.701Z,11.30
2023-04-18T11:16:38.886Z,11.20
2023-04-18T11:19:19.805Z,11.30
2023-04-18T11:21:46.776Z,11.30
2023-04-18T11:24:20.410Z,11.30
2023-04-18T11:26:47.352Z,11.60
2023-04-18T11:29:14.204Z,11.70
2023-04-18T11:31:41.820Z,11.80
2023-04-18T11:34:08.713Z,11.60
2023-04-18T11:36:38.177Z,11.40
2023-04-18T11:39:06.305Z,11.50
2023-04-18T11:41:33.186Z,11.40
2023-04-18T11:44:01.586Z,11.40
2023-04-18T11:46:37.455Z,11.40
2023-04-18T11:49:04.350Z,11.20
2023-04-18T11:51:31.683Z,11.20
2023-04-18T11:53:58.657Z,11.10
2023-04-18T11:56:25.595Z,11.20
2023-04-18T11:58:52.482Z,11.20
2023-04-18T12:01:23.053Z,11.30
2023-04-18T12:04:10.399Z,11.20
2023-04-18T12:06:46.993Z,11.10
2023-04-18T12:09:14.475Z,10.90
2023-04-18T12:11:41.718Z,10.90
2023-04-18T12:14:21.928Z,10.90
2023-04-18T12:16:49.553Z,11.00
2023-04-18T12:19:17.248Z,11.00
2023-04-18T12:21:57.381Z,11.00
2023-04-18T12:24:25.370Z,11.00
2023-04-18T12:26:52.561Z,11.00
2023-04-18T12:29:19.480Z,11.00
2023-04-18T12:31:47.096Z,11.00
2023-04-18T12:34:14.325Z,11.20
2023-04-18T12:36:42.244Z,11.30
2023-04-18T12:39:09.902Z,11.20
2023-04-18T12:41:36.956Z,11.40
2023-04-18T12:44:04.230Z,11.30
2023-04-18T12:46:31.560Z,11.30
2023-04-18T12:48:58.555Z,11.20
2023-04-18T12:51:26.686Z,11.10
2023-04-18T12:53:53.682Z,11.00
2023-04-18T12:56:21.233Z,11.00
2023-04-18T12:58:48.218Z,11.00
2023-04-18T13:01:15.400Z,10.90
2023-04-18T13:03:42.495Z,10.80
2023-04-18T13:06:09.571Z,10.60
2023-04-18T13:08:37.705Z,10.60
2023-04-18T13:11:04.679Z,10.50
2023-04-18T13:13:32.568Z,10.50
2023-04-18T13:16:00.877Z,10.50
2023-04-18T13:18:27.791Z,10.70
2023-04-18T13:20:56.866Z,10.80
2023-04-18T13:23:23.806Z,10.80
2023-04-18T13:25:50.844Z,10.80
2023-04-18T13:28:17.904Z,10.80
2023-04-18T13:30:44.947Z,10.80
2023-04-18T13:33:11.911Z,10.70
2023-04-18T13:35:38.918Z,10.70
2023-04-18T13:38:05.926Z,10.60
2023-04-18T13:40:33.661Z,10.70
2023-04-18T13:43:00.635Z,10.60
2023-04-18T13:45:27.669Z,10.70
2023-04-18T13:47:54.640Z,10.90
2023-04-18T13:50:21.719Z,11.00
2023-04-18T13:52:49.496Z,11.00
2023-04-18T13:55:17.025Z,10.80
2023-04-18T13:57:43.863Z,10.80
2023-04-18T14:00:13.310Z,10.80
2023-04-18T14:02:40.805Z,10.80
2023-04-18T14:05:08.151Z,10.70
2023-04-18T14:07:35.534Z,10.80
2023-04-18T14:10:02.455Z,10.70
2023-04-18T14:12:29.325Z,10.60
2023-04-18T14:14:56.191Z,10.70
2023-04-18T14:17:23.043Z,10.60
2023-04-18T14:19:51.555Z,10.60
2023-04-18T14:22:18.466Z,10.60
2023-04-18T14:24:45.637Z,10.60
2023-04-18T14:27:12.878Z,10.70
2023-04-18T14:29:40.578Z,10.70
2023-04-18T14:32:07.573Z,10.70
2023-04-18T14:34:36.650Z,10.80
2023-04-18T14:37:04.550Z,10.80
2023-04-18T14:39:31.622Z,10.80
2023-04-18T14:41:58.605Z,10.70
2023-04-18T14:44:25.670Z,10.80
2023-04-18T14:46:52.546Z,10.80
2023-04-18T14:49:19.387Z,10.80
2023-04-18T14:51:46.263Z,10.70
2023-04-18T14:54:13.255Z,10.80
2023-04-18T14:56:40.162Z,10.80
2023-04-18T14:59:07.026Z,10.70
2023-04-18T15:01:33.991Z,10.80
2023-04-18T15:04:01.183Z,10.80
2023-04-18T15:06:28.580Z,10.70
2023-04-18T15:08:55.550Z,10.70
2023-04-18T15:11:23.276Z,10.80
2023-04-18T15:13:50.780Z,10.50
2023-04-18T15:16:17.825Z,10.50
2023-04-18T15:18:45.240Z,10.60
2023-04-18T15:21:12.184Z,10.70
2023-04-18T15:23:39.068Z,10.70
2023-04-18T15:26:06.667Z,10.60
2023-04-18T15:28:33.587Z,10.60
2023-04-18T15:31:00.514Z,10.60
2023-04-18T15:33:27.464Z,10.60
2023-04-18T15:35:55.198Z,10.60
2023-04-18T15:38:22.304Z,10.60
2023-04-18T15:40:49.284Z,10.60
2023-04-18T15:43:17.364Z,10.60
2023-04-18T15:45:44.797Z,10.60
2023-04-18T15:48:13.283Z,10.60
2023-04-18T15:50:40.559Z,10.70
2023-04-18T15:53:07.433Z,10.80
2023-04-18T15:55:34.556Z,10.80
2023-04-18T15:58:01.764Z,10.70
2023-04-18T16:00:28.931Z,10.80
2023-04-18T16:02:55.931Z,10.80
2023-04-18T16:05:22.834Z,10.90
2023-04-18T16:07:49.894Z,10.90
2023-04-18T16:10:16.811Z,10.90
2023-04-18T16:12:43.890Z,11.00
2023-04-18T16:15:11.115Z,11.00
2023-04-18T16:17:38.052Z,11.00
2023-04-18T16:20:06.474Z,11.10
2023-04-18T16:22:33.633Z,11.10
2023-04-18T16:25:00.546Z,11.10
2023-04-18T16:27:27.518Z,11.00
2023-04-18T16:29:54.460Z,11.00
2023-04-18T16:32:21.514Z,10.80
2023-04-18T16:34:48.679Z,10.60
2023-04-18T16:37:15.740Z,10.60
2023-04-18T16:39:42.686Z,10.50
2023-04-18T16:42:09.574Z,10.50
2023-04-18T16:44:36.416Z,10.50
2023-04-18T16:47:05.190Z,10.50
2023-04-18T16:49:32.185Z,10.50
2023-04-18T16:51:59.117Z,10.50
2023-04-18T16:54:26.077Z,10.50
2023-04-18T16:56:53.135Z,10.60
2023-04-18T16:59:19.979Z,10.60
2023-04-18T17:01:47.014Z,10.60
2023-04-18T17:04:14.922Z,10.70
2023-04-18T17:06:43.663Z,10.70
2023-04-18T17:09:13.576Z,10.70
2023-04-18T17:11:41.251Z,10.70
2023-04-18T17:14:11.741Z,10.70
2023-04-18T17:16:39.114Z,10.70
2023-04-18T17:19:06.108Z,10.80
2023-04-18T17:21:33.936Z,10.80
2023-04-18T17:24:03.817Z,10.90
2023-04-18T17:26:31.010Z,10.90
2023-04-18T17:28:57.908Z,10.80
2023-04-18T17:31:24.948Z,10.80
2023-04-18T17:33:51.948Z,10.80
2023-04-18T17:36:18.842Z,10.80
2023-04-18T17:38:49.031Z,10.70
2023-04-18T17:41:16.398Z,10.70
2023-04-18T17:43:43.653Z,10.70
2023-04-18T17:46:10.681Z,10.60
2023-04-18T17:48:37.893Z,10.60
2023-04-18T17:51:04.800Z,10.60
2023-04-18T17:53:32.352Z,10.60
2023-04-18T17:55:59.633Z,10.60
2023-04-18T17:58:26.715Z,10.60
2023-04-18T18:00:53.817Z,10.60
2023-04-18T18:03:21.005Z,10.60
2023-04-18T18:05:48.479Z,10.60
2023-04-18T18:08:15.439Z,10.60
2023-04-18T18:10:42.835Z,10.60
2023-04-18T18:13:09.727Z,10.60
2023-04-18T18:15:36.756Z,10.50
2023-04-18T18:18:03.749Z,10.50
2023-04-18T18:20:31.038Z,10.50
2023-04-18T18:22:59.956Z,10.50
2023-04-18T18:25:27.674Z,10.40
2023-04-18T18:27:55.183Z,10.40
2023-04-18T18:30:22.089Z,10.30
2023-04-18T18:32:49.658Z,10.30
2023-04-18T18:35:16.600Z,10.20
2023-04-18T18:37:43.513Z,10.10
2023-04-18T18:40:10.604Z,10.10
2023-04-18T18:42:37.561Z,10.10
2023-04-18T18:45:04.901Z,10.00
2023-04-18T18:47:31.800Z,10.00
2023-04-18T18:49:58.731Z,9.90
2023-04-18T18:52:28.190Z,9.90
2023-04-18T18:54:55.248Z,9.80
2023-04-18T18:57:22.280Z,9.70
2023-04-18T18:59:53.357Z,9.70
2023-04-18T19:02:22.319Z,9.70
2023-04-18T19:04:49.523Z,9.60
2023-04-18T19:07:16.526Z,9.60
2023-04-18T19:09:43.387Z,9.50
2023-04-18T19:12:10.453Z,9.50
2023-04-18T19:14:37.333Z,9.50
2023-04-18T19:17:05.569Z,9.40
2023-04-18T19:19:32.414Z,9.40
2023-04-18T19:22:01.221Z,9.40
2023-04-18T19:24:28.158Z,9.40
2023-04-18T19:26:55.063Z,9.30
2023-04-18T19:29:22.250Z,9.30
2023-04-18T19:31:49.279Z,9.30
2023-04-18T19:34:18.995Z,9.30
2023-04-18T19:36:45.916Z,9.30
2023-04-18T19:39:12.993Z,9.30
2023-04-18T19:41:41.622Z,9.30
2023-04-18T19:44:08.445Z,9.30
2023-04-18T19:46:35.534Z,9.20
2023-04-18T19:49:02.585Z,9.20
2023-04-18T19:51:29.660Z,9.20
2023-04-18T19:53:56.580Z,9.10
2023-04-18T19:56:23.550Z,9.10
2023-04-18T19:58:51.190Z,9.20
2023-04-18T20:01:21.432Z,9.20
2023-04-18T20:03:48.606Z,9.20
2023-04-18T20:06:16.014Z,9.20
2023-04-18T20:08:42.952Z,9.30
2023-04-18T20:11:10.108Z,9.40
2023-04-18T20:13:37.650Z,9.40
2023-04-18T20:16:04.990Z,9.40
2023-04-18T20:18:36.108Z,9.50
2023-04-18T20:21:03.398Z,9.40
2023-04-18T20:23:30.274Z,9.50
2023-04-18T20:25:57.281Z,9.50
2023-04-18T20:28:24.168Z,9.50
2023-04-18T20:30:51.060Z,9.50
2023-04-18T20:33:17.986Z,9.50
2023-04-18T20:35:44.899Z,9.50
2023-04-18T20:38:12.448Z,9.60
2023-04-18T20:40:39.861Z,9.60
2023-04-18T20:43:09.446Z,9.60
2023-04-18T20:45:37.740Z,9.60
2023-04-18T20:48:04.649Z,9.70
2023-04-18T20:50:31.844Z,9.70
2023-04-18T20:53:00.513Z,9.70
2023-04-18T20:55:27.450Z,9.80
2023-04-18T20:57:54.296Z,9.80
2023-04-18T21:00:21.204Z,9.80
2023-04-18T21:02:48.320Z,9.80
2023-04-18T21:05:15.338Z,9.80
2023-04-18T21:07:44.035Z,9.80
2023-04-18T21:10:12.217Z,9.80
2023-04-18T21:12:39.108Z,9.80
2023-04-18T21:15:06.280Z,9.80
2023-04-18T21:17:33.215Z,9.90
2023-04-18T21:20:00.332Z,9.90
2023-04-18T21:22:27.380Z,9.90
2023-04-18T21:24:54.260Z,9.90
2023-04-18T21:27:21.167Z,9.90
2023-04-18T21:29:48.142Z,10.00
2023-04-18T21:32:15.053Z,10.00
2023-04-18T21:34:41.918Z,10.00
2023-04-18T21:37:08.827Z,10.00
2023-04-18T21:39:35.700Z,10.00
2023-04-18T21:42:03.215Z,10.10
2023-04-18T21:44:30.348Z,10.10
2023-04-18T21:46:57.268Z,10.10
2023-04-18T21:49:24.615Z,10.00
2023-04-18T21:51:51.458Z,10.10
2023-04-18T21:54:18.343Z,10.00
2023-04-18T21:56:45.218Z,10.00
2023-04-18T21:59:12.066Z,10.00
2023-04-18T22:01:39.331Z,10.10
2023-04-18T22:04:06.483Z,10.00
2023-04-18T22:06:33.581Z,10.00
2023-04-18T22:09:01.143Z,10.00
2023-04-18T22:11:28.745Z,10.00
2023-04-18T22:13:58.198Z,10.10
2023-04-18T22:16:25.192Z,10.00
2023-04-18T22:18:52.164Z,10.00
2023-04-18T22:21:19.128Z,9.90
2023-04-18T22:23:46.036Z,9.90
2023-04-18T22:26:12.949Z,9.90
2023-04-18T22:28:39.947Z,9.90
2023-04-18T22:31:06.887Z,9.80
2023-04-18T22:33:33.907Z,9.80
2023-04-18T22:36:00.941Z,9.80
2023-04-18T22:38:27.882Z,9.80
2023-04-18T22:40:54.739Z,9.70
2023-04-18T22:43:23.839Z,9.70
2023-04-18T22:45:51.132Z,9.60
2023-04-18T22:48:18.134Z,9.60
2023-04-18T22:50:46.445Z,9.50
2023-04-18T22:53:14.456Z,9.50
2023-04-18T22:55:41.497Z,9.40
2023-04-18T22:58:08.568Z,9.40
2023-04-18T23:00:35.483Z,9.40
2023-04-18T23:03:02.607Z,9.40
2023-04-18T23:05:29.786Z,9.30
2023-04-18T23:07:59.642Z,9.30
2023-04-18T23:10:27.321Z,9.30
2023-04-18T23:12:54.172Z,9.20
2023-04-18T23:15:23.102Z,9.20
2023-04-18T23:17:53.229Z,9.20
2023-04-18T23:20:20.421Z,9.20
2023-04-18T23:22:50.196Z,9.20
2023-04-18T23:25:17.518Z,9.10
2023-04-18T23:27:44.398Z,9.10
2023-04-18T23:30:11.519Z,9.10
2023-04-18T23:32:38.405Z,9.10
2023-04-18T23:35:06.170Z,9.00
2023-04-18T23:37:33.104Z,9.00
2023-04-18T23:40:00.168Z,9.00
2023-04-18T23:42:27.483Z,9.00
2023-04-18T23:44:54.744Z,9.00
2023-04-18T23:47:22.077Z,8.90
2023-04-18T23:49:48.974Z,8.90
2023-04-18T23:52:15.898Z,8.90
2023-04-18T23:54:42.896Z,8.90
2023-04-18T23:57:09.718Z,8.90
2023-04-18T23:59:36.711Z,8.90
